• Join FlightAware (Why Join?)
  • Login
  • US Flag 
12:39PM EDT


 

Airport Tracker/Info


-or-


 

Live Flight TrackerFlight Track Log ✈ JZA795 ✈ 23-May-2012 ✈ CYQY - CYYZ

Flight Track Log - Related Links

Times and Time Zones

All times are in EDT time to prevent confusion due to time zone crossing. See the JZA795 flight status page for this flight to view local times or setup timezone preferences in your user account.

Time Position Orientation Groundspeed Altitude Reporting Facility
EDT Latitude Longitude Course Direction KTS MPH feet Rate Location/Type
05:13AM 46.1500 -60.0167 234° Southwest 10 12 200  Level Moncton Center
05:14AM 46.1167 -60.0833 226° Southwest 130 150 2,100 2,160 Climbing Moncton Center
05:15AM 46.0833 -60.1333 250° West 180 207 4,600 2,340 Climbing Moncton Center
05:16AM 46.0667 -60.2000 270° West 240 276 6,800 2,520 Climbing Moncton Center
05:17AM 46.0667 -60.3167 270° West 260 299 9,700 2,400 Climbing Moncton Center
05:18AM 46.0667 -60.4333 280° West 270 311 11,600 1,800 Climbing Moncton Center
05:19AM 46.0833 -60.5667 270° West 320 368 13,300 1,560 Climbing Moncton Center
05:20AM 46.0833 -60.7000 270° West 350 403 14,800 1,500 Climbing Moncton Center
05:21AM 46.0833 -60.8500 278° West 380 437 16,300 1,620 Climbing Moncton Center
05:22AM 46.1000 -61.0167 262° West 390 449 18,100 1,680 Climbing Moncton Center
05:23AM 46.0833 -61.1833 270° West 410 472 19,700 1,500 Climbing Moncton Center
05:24AM 46.0833 -61.3333 270° West 420 483 21,100 1,380 Climbing Moncton Center
05:25AM 46.0833 -61.5333 278° West 420 483 22,500 1,260 Climbing Moncton Center
05:26AM 46.1000 -61.7000 270° West 430 495 23,700 1,200 Climbing Moncton Center
05:27AM 46.1000 -61.8667 270° West 430 495 24,900 1,140 Climbing Moncton Center
05:28AM 46.1000 -62.0500 270° West 440 506 26,000 960 Climbing Moncton Center
05:29AM 46.1000 -62.2167 278° West 440 506 26,900 1,200 Climbing Moncton Center
05:30AM 46.1167 -62.4000 270° West 450 518 28,400 1,440 Climbing Moncton Center
05:31AM 46.1167 -62.5833 270° West 440 506 29,800 1,320 Climbing Moncton Center
05:32AM 46.1167 -62.7500 270° West 440 506 31,100 1,200 Climbing Moncton Center
05:33AM 46.1167 -62.9167 270° West 430 495 32,200 1,080 Climbing Moncton Center
05:34AM 46.1167 -63.1000 262° West 430 495 33,300 1,080 Climbing Moncton Center
05:35AM 46.1000 -63.2667 270° West 420 483 34,400 960 Climbing Moncton Center
05:36AM 46.1000 -63.4333 270° West 420 483 35,300 900 Climbing Moncton Center
05:37AM 46.1000 -63.6000 278° West 420 483 36,300 900 Climbing Moncton Center
05:38AM 46.1167 -63.7667 270° West 410 472 37,100 660 Climbing Moncton Center
05:39AM 46.1167 -63.9333 270° West 410 472 37,700 420 Climbing Moncton Center
05:40AM 46.1167 -64.1000 270° West 410 472 38,000 120 Climbing Moncton Center
05:41AM 46.1167 -64.2833 270° West 420 483 38,000  Level Moncton Center
05:42AM 46.1167 -64.4500 270° West 420 483 38,000  Level Moncton Center
05:43AM 46.1167 -64.6167 270° West 420 483 38,000  Level Moncton Center
05:44AM 46.1167 -64.7833 270° West 420 483 38,000  Level Moncton Center
05:45AM 46.1167 -64.9500 262° West 420 483 38,000  Level Moncton Center
05:46AM 46.1000 -65.1167 262° West 420 483 38,000  Level Moncton Center
05:47AM 46.0833 -65.2833 270° West 420 483 38,000  Level Moncton Center
05:48AM 46.0833 -65.4667 270° West 420 483 38,000  Level Moncton Center
05:49AM 46.0833 -65.6333 270° West 420 483 38,000  Level Moncton Center
05:50AM 46.0833 -65.8000 270° West 420 483 38,000  Level Moncton Center
05:51AM 46.0833 -65.9667 270° West 420 483 38,000  Level Moncton Center
05:52AM 46.0833 -66.1333 270° West 420 483 38,000  Level Moncton Center
05:53AM 46.0833 -66.3000 262° West 420 483 38,000  Level Moncton Center
05:54AM 46.0667 -66.4667 270° West 420 483 38,000  Level Moncton Center
05:55AM 46.0667 -66.6333 270° West 420 483 38,000  Level Moncton Center
05:56AM 46.0667 -66.8167 270° West 420 483 38,000  Level Moncton Center
05:57AM 46.0667 -66.9500 263° West 420 483 38,000  Level Moncton Center
05:58AM 46.0500 -67.1500 260° West 420 483 38,000  Level Moncton Center
05:59AM 46.0333 -67.2833 270° West 420 483 38,000  Level Moncton Center
06:00AM 46.0333 -67.4833 270° West 420 483 38,000  Level Moncton Center
06:01AM 46.0333 -67.6333 278° West 410 472 38,000  Level Moncton Center
06:02AM 46.0436 -67.7458 265° West 427 491 38,000  Level Boston Center
06:03AM 46.0333 -67.9083 264° West 427 491 38,000  Level Boston Center
06:04AM 46.0208 -68.0708 262° West 422 486 38,000  Level Boston Center
06:05AM 46.0058 -68.2333 261° West 417 480 38,000  Level Boston Center
06:06AM 45.9886 -68.3900 262° West 410 472 38,000  Level Boston Center
06:07AM 45.9733 -68.5525 263° West 410 472 38,000  Level Boston Center
06:08AM 45.9594 -68.7086 262° West 410 472 38,000  Level Boston Center
06:09AM 45.9436 -68.8678 263° West 410 472 38,000  Level Boston Center
06:10AM 45.9297 -69.0239 262° West 410 472 38,000  Level Boston Center
06:11AM 45.9153 -69.1800 261° West 410 472 38,000 -60 Level Boston Center
06:12AM 45.8989 -69.3361 262° West 410 472 37,900  Descending Boston Center
06:13AM 45.8842 -69.4919 263° West 405 466 38,000  Climbing Boston Center
06:14AM 45.8714 -69.6475 261° West 405 466 38,000  Level Boston Center
06:15AM 45.8542 -69.8033 262° West 405 466 38,000  Level Boston Center
06:16AM 45.8386 -69.9589 261° West 405 466 38,000  Level Boston Center
06:17AM 45.8211 -70.1144 263° West 405 466 38,000  Level Boston Center
06:18AM 45.8075 -70.2700 261° West 405 466 38,000  Level Boston Center
06:19AM 45.7894 -70.4256 264° West 405 466 38,000  Level Boston Center
06:20AM 45.7775 -70.5864 255° West 405 466 38,000  Level Boston Center
06:21AM 45.7500 -70.7333 262° West 400 460 38,000  Level Montreal Center
06:22AM 45.7333 -70.9000 270° West 410 472 38,000  Level Montreal Center
06:23AM 45.7333 -71.0667 261° West 410 472 38,000  Level Montreal Center
06:24AM 45.7167 -71.2167 270° West 410 472 38,000  Level Montreal Center
06:25AM 45.7167 -71.3833 262° West 410 472 38,000  Level Montreal Center
06:26AM 45.7000 -71.5500 270° West 410 472 38,000  Level Montreal Center
06:27AM 45.7000 -71.7167 252° West 410 472 38,000  Level Montreal Center
06:28AM 45.6667 -71.8667 262° West 410 472 38,000  Level Montreal Center
06:29AM 45.6500 -72.0333 270° West 410 472 38,000  Level Montreal Center
06:30AM 45.6500 -72.2000 261° West 410 472 38,000  Level Montreal Center
06:31AM 45.6333 -72.3500 262° West 410 472 38,000  Level Montreal Center
06:32AM 45.6167 -72.5167 270° West 410 472 38,000  Level Montreal Center
06:34AM 45.6167 -72.8500 261° West 410 472 38,000  Level Montreal Center
06:35AM 45.6000 -73.0000 270° West 410 472 38,000  Level Montreal Center
06:36AM 45.6000 -73.1667 278° West 410 472 38,000  Level Montreal Center
06:37AM 45.6167 -73.3333 270° West 410 472 38,000  Level Montreal Center
06:38AM 45.6167 -73.5000 262° West 410 472 38,000  Level Montreal Center
06:39AM 45.6000 -73.6667 270° West 410 472 38,000  Level Montreal Center
06:40AM 45.6000 -73.8333 262° West 410 472 38,000  Level Montreal Center
06:41AM 45.5833 -74.0000 270° West 420 483 38,000  Level Montreal Center
06:42AM 45.5833 -74.1500 254° West 420 483 38,000  Level Montreal Center
06:43AM 45.5500 -74.3167 262° West 420 483 38,000  Level Montreal Center
06:44AM 45.5333 -74.4833 254° West 420 483 38,000  Level Montreal Center
06:45AM 45.5000 -74.6500 254° West 420 483 38,000  Level Montreal Center
06:46AM 45.4667 -74.8167 262° West 430 495 38,000  Level Montreal Center
06:47AM 45.4500 -74.9833 254° West 430 495 38,000  Level Montreal Center
06:48AM 45.4167 -75.1500 254° West 430 495 38,000  Level Montreal Center
06:49AM 45.3833 -75.3167 262° West 430 495 38,000  Level Montreal Center
06:50AM 45.3667 -75.4833 254° West 430 495 38,000  Level Montreal Center
06:51AM 45.3333 -75.6500 256° West 430 495 38,000  Level Montreal Center
06:52AM 45.3000 -75.8333 262° West 440 506 38,000  Level Montreal Center
06:53AM 45.2833 -76.0000 254° West 430 495 38,000  Level Montreal Center
06:54AM 45.2500 -76.1667 242° Southwest 430 495 38,000  Level Montreal Center
06:55AM 45.2000 -76.3000 240° Southwest 430 495 38,000  Level Montreal Center
06:56AM 45.1333 -76.4667 223° Southwest 440 506 38,000  Level Montreal Center
06:57AM 45.0833 -76.5333 245° Southwest 440 506 38,000  Level Toronto Center
06:58AM 45.0333 -76.6833 232° Southwest 440 506 38,000  Level Toronto Center
06:59AM 44.9500 -76.8333 235° Southwest 440 506 38,000  Level Toronto Center
07:00AM 44.8833 -76.9667 238° Southwest 440 506 38,000  Level Toronto Center
07:01AM 44.8167 -77.1167 238° Southwest 440 506 38,000 -300 Level Toronto Center
07:02AM 44.7500 -77.2667 242° Southwest 440 506 37,500 -600 Descending Toronto Center
07:03AM 44.7000 -77.4000 235° Southwest 450 518 36,800 -840 Descending Toronto Center
07:04AM 44.6167 -77.5667 238° Southwest 460 529 35,900 -960 Descending Toronto Center
07:05AM 44.5500 -77.7167 235° Southwest 460 529 34,900 -1,020 Descending Toronto Center
07:06AM 44.4667 -77.8833 235° Southwest 470 541 33,900 -1,020 Descending Toronto Center
07:07AM 44.4000 -78.0167 235° Southwest 480 552 32,900 -1,020 Descending Toronto Center
07:08AM 44.3167 -78.1833 238° Southwest 480 552 31,900 -1,500 Descending Toronto Center
07:09AM 44.2500 -78.3333 235° Southwest 470 541 29,900 -2,280 Descending Toronto Center
07:10AM 44.1833 -78.4667 238° Southwest 460 529 27,400 -2,760 Descending Toronto Center
07:11AM 44.1167 -78.6167 235° Southwest 450 518 24,400 -2,880 Descending Toronto Center
07:12AM 44.0500 -78.7500 235° Southwest 430 495 21,700 -2,820 Descending Toronto Center
07:13AM 43.9833 -78.8833 239° Southwest 400 460 18,800 -2,820 Descending Toronto Center
07:14AM 43.9333 -79.0000 239° Southwest 380 437 16,100 -2,820 Descending Toronto Center
07:15AM 43.8833 -79.1167 232° Southwest 370 426 13,200 -2,820 Descending Toronto Center
07:16AM 43.8167 -79.2333 235° Southwest 360 414 10,500 -1,620 Descending Toronto Center
07:17AM 43.7667 -79.3333 224° Southwest 320 368 10,000 -720 Descending Toronto Center
07:18AM 43.7167 -79.4000 216° Southwest 290 334 9,100 -960 Descending Toronto Center
07:19AM 43.6500 -79.4667 216° Southwest 270 311 8,100 -1,200 Descending Toronto Center
07:20AM 43.6000 -79.5167 216° Southwest 260 299 6,800 -1,440 Descending Toronto Center
07:21AM 43.5333 -79.5833 235° Southwest 260 299 5,300 -1,440 Descending Toronto Center
07:22AM 43.5000 -79.6500 257° West 250 288 4,000 -1,200 Descending Toronto Center
07:23AM 43.4833 -79.7500 346° North 230 265 3,000 -540 Descending Toronto Center
07:24AM 43.5333 -79.7667 47° Northeast 200 230 3,000 -60 Level Toronto Center
07:25AM 43.5667 -79.7167 36° Northeast 200 230 2,900 -600 Descending Toronto Center
07:26AM 43.6000 -79.6833 47° Northeast 160 184 1,900 -900 Descending Toronto Center
07:27AM 43.6333 -79.6333 65° Northeast 150 173 1,200 -720 Descending Toronto Center
07:28AM 43.6500 -79.5833 360° North 140 161 500 -360 Descending Toronto Center
07:29AM 43.6667 -79.5833 360° North 50 58 500  Level Toronto Center